Relevés horaires Eggishorn (Suisse)


Relevés horaires à Eggishorn - Mercredi 27 Nov. 2019
Heure UTC1 Température [°C] Vent [km/h] Hum. [%] Pres.4 [hPa] Visi. [Km] Nébu. [octa] Préc.5 [mm] Cond.
2m. Res. Ros. Dir.2 Vit. Moy. Raf.3
23:00 -6.5 -14.4 -6.9 O 25.9 -- 42.6 97 700(-0.1/3h) -- -- -- --
22:00 -6.3 -13.6 -7.1 O 22.2 -- 44.4 94 700(0.1/3h) -- -- -- --
21:00 -6.0 -13.5 -7.4 O 24.1 -- 53.7 90 700(0.5/3h) -- -- -- --
20:00 -6.0 -14.5 -8.9 O 31.5 -- 53.7 80 700(0.6/3h) -- -- -- --
19:00 -6.2 -13.1 -6.5 O 20.4 -- 37.0 98 700(0.8/3h) -- -- -- --
18:00 -6.4 -13 -6.7 O 18.5 -- 68.5 98 700(0.4/3h) -- -- -- --
17:00 -6.4 -11.8 -7.0 O 13.0 -- 68.5 95 700(0.3/3h) -- -- -- --
16:00 -5.5 -14.4 -7.6 O 37.0 -- 68.5 85 700(0.2/3h) -- -- -- --
15:00 -5.4 -13.7 -8.3 O 31.5 -- 48.2 80 700(0.5/3h) -- -- -- --
14:00 -5.5 -11.6 -6.7 ONO 16.7 -- -- 91 702.2 -- -- -- --
13:00 -4.7 -9.3 -4.9 O 11.1 -- 29.6 98 700(-1.0/3h) -- -- -- --
12:00 -4.9 -10.4 -5.7 O 14.8 -- 44.4 94 700(-1.5/3h) -- -- -- --
11:00 -4.6 -10 -5.0 SO 14.8 -- 44.4 97 700(-1.0/3h) -- -- -- --
10:00 -4.3 -11.3 -5.2 OSO 24.1 -- 44.4 93 700(0.3/3h) -- -- -- --
09:00 -5.3 -10.5 -5.7 OSO 13.0 -- 37.0 97 700(0.7/3h) -- -- -- --
08:00 -5.3 -11.7 -5.8 O 18.5 -- 29.6 96 700(0.7/3h) -- -- -- --
07:00 -5.3 -12 -6.4 SE 20.4 -- 37.0 92 700(-0.8/3h) -- -- -- --
06:00 -4.9 -11.8 -4.9 SE 22.2 -- 51.9 100 700(-1.4/3h) -- -- -- --
05:00 -4.5 -12.7 -5.0 ESE 33.3 -- 50.0 96 700(-2.1/3h) -- -- -- --
04:00 -4.3 -13 -5.0 ESE 38.9 -- 51.9 95 700(-2.1/3h) -- -- -- --
03:00 -4.2 -12.3 -5.0 ESE 33.3 -- 46.3 94 700(-2.6/3h) -- -- -- --
02:00 -4.0 -12.5 -5.0 E 37.0 -- 44.4 93 700(-2.5/3h) -- -- -- --
01:00 -4.4 -12.2 -4.8 E 29.6 -- 33.3 97 700(-2.4/3h) -- -- -- --
00:00 -1.9 -4.8 -7.6 SE 7.4 -- 31.5 65 700(-1.7/3h) -- -- -- --

1 Coordinated Universal Time. Actuellement il est 03:00 locale et 01:00 UTC.

2 Le vent souffle depuis la direction indiquée vers la direction oposée.

3 Les rafales max. sont disponible 40 min après l'heure du relevé.

4 Pour les stations d'altitude (plus de 600m) le géopotentiel du niveau le plus proche de la pression obligatoire est indiqué.

5 Les stations disposant d'un diffuseur peuvent indiquer "trace". Cela signifie que des précipitations ont touchés le sol mais que la quantité est inférieure à 0.1 mm.

Copyright

Les données affichées sur cette page sont la propriété exclusive de Météo Suisse.

Récapitulatif de la journée
Température [°C] Vent [km/h] Ensoleillement4 [h] Precipitations totale5 [mm] Pression [Hpa]
Min1 Max.2 Moy.3 Max. Min Max.
-4.9 -3.6 0 68.5 2 h 36 min 0 700.0 702.2

1 Température minimale relevée entre 18:00 UTC la veille et 18:00 UTC le jour donné.

2 Température maximale relevée entre 06:00 UTC le jour donné et 06:00 UTC le lendemain.

3 Vent moyen de la journée basé sur les relevés horaires.

4 Ensoleillement en heures relevé entre 06:00 UTC la veille et 06:00 UTC le jour donné.

5 Précipitations totales tombées entre 06:00 UTC la jour donné et 06:00 UTC le lendemain.

Graphiques horaires